KXA weather

Kasaan Seaplane Base
Kasaan, Alaska, United States

Public forecast

Using degrees Fahrenheit for public forecast. Weather courtesy of forecast.io.

Closest aviation weather report (METAR) to Kasaan Seaplane Base

Closest report is Klawock Airport, 23.2 nm (42.9 km) W. Retrieved 2019/11/19 08:53 UTC (56 minutes ago):

PAKW 190853Z AUTO 00000KT 3SM BR BKN002 02/01 A3004 RMK SLP172 T00170006 400830017 50010 TSNO VIA AUTODIAL

Closest aviation forecast (TAF) to Kasaan Seaplane Base

Closest forecast is Klawock Airport, 23.2 nm (42.9 km) W. Retrieved 2019/11/19 06:39 UTC (3 hours ago):

TAF PAKW 190535Z 1906/2006 VRB03KT P6SM FEW020 BKN030 FM191000 VRB02KT P6SM VCFG SCT008 BKN050 FM191800 VRB03KT P6SM BKN035 AMD LTD TO CLD VIS AND WIND